createdAt,value
2022-08-26T00:00:15.986Z,25.69
2022-08-26T00:03:08.427Z,25.64
2022-08-26T00:05:41.912Z,25.58
2022-08-26T00:08:15.927Z,25.53
2022-08-26T00:10:48.391Z,25.46
2022-08-26T00:13:22.103Z,25.38
2022-08-26T00:15:54.261Z,25.31
2022-08-26T00:18:26.538Z,25.24
2022-08-26T00:20:58.667Z,25.17
2022-08-26T00:23:31.262Z,25.11
2022-08-26T00:26:05.281Z,25.05
2022-08-26T00:28:40.607Z,24.99
2022-08-26T00:31:12.855Z,24.95
2022-08-26T00:33:45.384Z,24.92
2022-08-26T00:36:20.262Z,24.90
2022-08-26T00:38:53.030Z,24.87
2022-08-26T00:41:25.155Z,24.85
2022-08-26T00:43:57.972Z,24.82
2022-08-26T00:46:35.305Z,24.80
2022-08-26T00:49:13.648Z,24.78
2022-08-26T00:51:50.027Z,24.77
2022-08-26T00:54:26.896Z,24.76
2022-08-26T00:57:02.629Z,24.74
2022-08-26T00:59:38.838Z,24.72
2022-08-26T01:02:21.236Z,24.71
2022-08-26T01:04:56.487Z,24.70
2022-08-26T01:07:31.448Z,24.69
2022-08-26T01:10:07.792Z,24.68
2022-08-26T01:12:44.095Z,24.68
2022-08-26T01:15:20.908Z,24.68
2022-08-26T01:17:51.358Z,24.67
2022-08-26T01:20:35.365Z,24.66
2022-08-26T01:23:10.022Z,24.64
2022-08-26T01:25:45.415Z,24.62
2022-08-26T01:28:22.849Z,24.60
2022-08-26T01:30:57.984Z,24.58
2022-08-26T01:33:42.176Z,24.56
2022-08-26T01:36:16.379Z,24.52
2022-08-26T01:38:48.632Z,24.50
2022-08-26T01:41:27.492Z,24.48
2022-08-26T01:44:03.052Z,24.44
2022-08-26T01:46:36.214Z,24.43
2022-08-26T01:49:11.477Z,24.41
2022-08-26T01:51:44.563Z,24.38
2022-08-26T01:54:17.171Z,24.35
2022-08-26T01:56:53.974Z,24.33
2022-08-26T01:59:26.621Z,24.31
2022-08-26T02:01:59.417Z,24.30
2022-08-26T02:04:35.968Z,24.29
2022-08-26T02:07:10.529Z,24.28
2022-08-26T02:09:44.267Z,24.27
2022-08-26T02:12:19.547Z,24.26
2022-08-26T02:14:55.133Z,24.26
2022-08-26T02:17:41.279Z,24.24
2022-08-26T02:20:17.034Z,24.21
2022-08-26T02:22:50.026Z,24.19
2022-08-26T02:25:27.202Z,24.18
2022-08-26T02:27:59.662Z,24.14
2022-08-26T02:30:34.811Z,24.11
2022-08-26T02:33:08.538Z,24.09
2022-08-26T02:35:41.860Z,24.11
2022-08-26T02:38:14.117Z,24.10
2022-08-26T02:40:46.161Z,24.09
2022-08-26T02:43:31.471Z,24.08
2022-08-26T02:46:04.955Z,24.09
2022-08-26T02:48:37.607Z,24.09
2022-08-26T02:51:09.847Z,24.08
2022-08-26T02:53:42.331Z,24.09
2022-08-26T02:56:14.804Z,24.07
2022-08-26T02:58:47.680Z,24.05
2022-08-26T03:01:35.228Z,24.04
2022-08-26T03:04:12.379Z,24.01
2022-08-26T03:06:52.636Z,23.98
2022-08-26T03:09:25.899Z,23.96
2022-08-26T03:11:58.279Z,23.93
2022-08-26T03:14:30.635Z,23.88
2022-08-26T03:17:02.760Z,23.86
2022-08-26T03:19:36.099Z,23.84
2022-08-26T03:22:08.743Z,23.82
2022-08-26T03:24:41.009Z,23.80
2022-08-26T03:27:19.122Z,23.78
2022-08-26T03:30:08.663Z,23.76
2022-08-26T03:32:44.629Z,23.72
2022-08-26T03:35:16.649Z,23.70
2022-08-26T03:37:48.725Z,23.68
2022-08-26T03:40:22.359Z,23.66
2022-08-26T03:42:55.002Z,23.64
2022-08-26T03:45:27.492Z,23.62
2022-08-26T03:47:59.885Z,23.62
2022-08-26T03:50:34.299Z,23.61
2022-08-26T03:53:12.807Z,23.61
2022-08-26T03:55:45.984Z,23.61
2022-08-26T03:58:18.653Z,23.62
2022-08-26T04:00:55.580Z,23.64
2022-08-26T04:03:45.550Z,23.66
2022-08-26T04:06:18.195Z,23.68
2022-08-26T04:08:50.332Z,23.69
2022-08-26T04:11:24.818Z,23.70
2022-08-26T04:13:57.439Z,23.69
2022-08-26T04:16:32.746Z,23.67
2022-08-26T04:19:05.424Z,23.63
2022-08-26T04:21:38.586Z,23.57
2022-08-26T04:24:12.505Z,23.53
2022-08-26T04:26:46.244Z,23.53
2022-08-26T04:29:21.540Z,23.58
2022-08-26T04:31:56.220Z,23.67
2022-08-26T04:34:30.331Z,23.99
2022-08-26T04:37:02.667Z,24.50
2022-08-26T04:39:35.802Z,25.02
2022-08-26T04:42:08.931Z,25.46
2022-08-26T04:44:41.242Z,25.85
2022-08-26T04:47:13.639Z,26.17
2022-08-26T04:49:45.713Z,26.42
2022-08-26T04:52:18.102Z,26.69
2022-08-26T04:54:50.172Z,26.89
2022-08-26T04:57:23.466Z,26.98
2022-08-26T04:59:56.187Z,27.18
2022-08-26T05:02:28.757Z,27.34
2022-08-26T05:05:00.943Z,27.52
2022-08-26T05:07:33.138Z,27.85
2022-08-26T05:10:08.742Z,27.98
2022-08-26T05:12:41.076Z,28.49
2022-08-26T05:15:16.520Z,29.29
2022-08-26T05:17:51.071Z,30.05
2022-08-26T05:20:26.061Z,30.81
2022-08-26T05:23:00.688Z,31.59
2022-08-26T05:25:33.718Z,32.24
2022-08-26T05:28:06.151Z,32.81
2022-08-26T05:30:38.929Z,33.34
2022-08-26T05:33:11.992Z,33.82
2022-08-26T05:35:45.442Z,34.31
2022-08-26T05:38:20.270Z,34.72
2022-08-26T05:40:53.288Z,35.12
2022-08-26T05:43:25.507Z,35.32
2022-08-26T05:45:58.374Z,34.99
2022-08-26T05:48:31.139Z,34.46
2022-08-26T05:51:07.076Z,34.05
2022-08-26T05:53:43.782Z,33.67
2022-08-26T05:56:27.904Z,33.38
2022-08-26T05:59:02.410Z,33.23
2022-08-26T06:01:36.689Z,32.95
2022-08-26T06:04:09.769Z,32.83
2022-08-26T06:06:43.185Z,33.06
2022-08-26T06:09:17.473Z,33.45
2022-08-26T06:11:50.533Z,33.64
2022-08-26T06:14:23.163Z,33.61
2022-08-26T06:16:55.347Z,33.69
2022-08-26T06:19:33.087Z,33.99
2022-08-26T06:22:26.871Z,34.81
2022-08-26T06:25:16.342Z,35.49
2022-08-26T06:27:48.998Z,35.97
2022-08-26T06:30:22.703Z,36.35
2022-08-26T06:32:57.721Z,36.75
2022-08-26T06:35:30.087Z,36.95
2022-08-26T06:38:03.419Z,36.92
2022-08-26T06:40:36.687Z,36.97
2022-08-26T06:43:10.401Z,37.09
2022-08-26T06:45:44.864Z,37.29
2022-08-26T06:48:19.316Z,37.35
2022-08-26T06:50:51.410Z,37.37
2022-08-26T06:53:23.634Z,37.54
2022-08-26T06:55:55.663Z,37.63
2022-08-26T06:58:28.986Z,37.70
2022-08-26T07:01:09.117Z,37.83
2022-08-26T07:03:43.696Z,38.00
2022-08-26T07:06:19.825Z,38.17
2022-08-26T07:08:53.746Z,38.48
2022-08-26T07:11:26.086Z,38.89
2022-08-26T07:14:00.261Z,39.35
2022-08-26T07:16:33.139Z,39.89
2022-08-26T07:19:10.937Z,40.41
2022-08-26T07:21:44.199Z,40.77
2022-08-26T07:24:16.352Z,41.11
2022-08-26T07:26:48.615Z,41.38
2022-08-26T07:29:24.437Z,41.61
2022-08-26T07:31:58.444Z,41.76
2022-08-26T07:34:32.263Z,42.00
2022-08-26T07:37:06.336Z,42.34
2022-08-26T07:39:42.068Z,42.74
2022-08-26T07:42:19.753Z,43.10
2022-08-26T07:44:51.791Z,43.50
2022-08-26T07:47:25.781Z,43.84
2022-08-26T07:50:00.737Z,44.17
2022-08-26T07:52:33.783Z,44.47
2022-08-26T07:55:08.720Z,44.84
2022-08-26T07:57:40.947Z,45.28
2022-08-26T08:00:17.676Z,45.66
2022-08-26T08:02:49.807Z,46.02
2022-08-26T08:05:33.358Z,46.42
2022-08-26T08:08:26.329Z,46.88
2022-08-26T08:11:00.479Z,47.24
2022-08-26T08:13:32.796Z,47.55
2022-08-26T08:16:07.066Z,47.84
2022-08-26T08:18:45.064Z,48.10
2022-08-26T08:21:21.217Z,48.17
2022-08-26T08:23:55.450Z,48.18
2022-08-26T08:26:29.194Z,48.23
2022-08-26T08:29:01.262Z,48.38
2022-08-26T08:34:29.851Z,48.46
2022-08-26T08:37:01.931Z,48.44
2022-08-26T08:39:35.755Z,48.40
2022-08-26T08:42:38.004Z,48.29
2022-08-26T08:45:15.503Z,47.88
2022-08-26T08:47:54.721Z,47.22
2022-08-26T08:50:31.087Z,46.52
2022-08-26T08:53:13.763Z,45.76
2022-08-26T08:55:59.546Z,45.14
2022-08-26T08:58:43.756Z,44.54
2022-08-26T09:01:26.038Z,44.18
2022-08-26T09:04:19.336Z,44.23
2022-08-26T09:09:36.502Z,43.89
2022-08-26T09:12:12.849Z,43.75
2022-08-26T09:14:46.530Z,43.66
2022-08-26T09:17:33.703Z,43.63
2022-08-26T09:20:13.454Z,43.51
2022-08-26T09:22:45.620Z,43.69
2022-08-26T09:25:18.637Z,43.72
2022-08-26T09:27:52.889Z,43.62
2022-08-26T09:30:28.787Z,43.56
2022-08-26T09:33:10.170Z,43.25
2022-08-26T09:35:47.509Z,42.91
2022-08-26T09:38:29.356Z,42.58
2022-08-26T09:41:05.117Z,42.35
2022-08-26T09:43:37.632Z,42.01
2022-08-26T09:46:19.695Z,41.70
2022-08-26T09:48:53.191Z,41.37
2022-08-26T09:51:35.577Z,41.01
2022-08-26T09:54:08.249Z,40.63
2022-08-26T09:56:41.282Z,40.24
2022-08-26T09:59:14.936Z,39.85
2022-08-26T10:01:51.207Z,39.50
2022-08-26T10:04:27.268Z,39.12
2022-08-26T10:07:02.043Z,38.81
2022-08-26T10:09:38.865Z,38.56
2022-08-26T10:12:14.620Z,38.33
2022-08-26T10:14:52.404Z,38.38
2022-08-26T10:17:31.709Z,38.22
2022-08-26T10:20:23.169Z,37.92
2022-08-26T10:23:00.586Z,37.69
2022-08-26T10:25:39.253Z,37.79
2022-08-26T10:28:23.835Z,37.82
2022-08-26T10:31:01.885Z,37.83
2022-08-26T10:33:34.258Z,37.95
2022-08-26T10:36:39.343Z,38.05
2022-08-26T10:39:21.277Z,37.95
2022-08-26T10:41:58.290Z,37.89
2022-08-26T10:44:35.511Z,37.94
2022-08-26T10:47:16.850Z,37.76
2022-08-26T10:49:50.643Z,37.65
2022-08-26T10:52:29.508Z,37.72
2022-08-26T10:55:12.161Z,37.82
2022-08-26T10:57:52.658Z,37.74
2022-08-26T11:00:46.951Z,37.55
2022-08-26T11:03:34.537Z,37.37
2022-08-26T11:06:28.269Z,37.12
2022-08-26T11:09:03.201Z,36.94
2022-08-26T11:11:53.010Z,37.01
2022-08-26T11:14:46.226Z,36.92
2022-08-26T11:17:57.533Z,36.66
2022-08-26T11:20:41.826Z,36.50
2022-08-26T11:23:50.346Z,36.23
2022-08-26T11:26:56.004Z,35.86
2022-08-26T11:30:03.330Z,35.84
2022-08-26T11:32:50.623Z,35.79
2022-08-26T11:35:52.337Z,35.52
2022-08-26T11:38:30.636Z,35.25
2022-08-26T11:41:13.305Z,34.96
2022-08-26T11:43:47.607Z,34.91
2022-08-26T11:46:28.747Z,34.87
2022-08-26T11:49:06.589Z,34.90
2022-08-26T11:51:40.573Z,35.04
2022-08-26T11:54:16.342Z,35.14
2022-08-26T11:56:51.043Z,35.12
2022-08-26T12:02:19.182Z,35.11
2022-08-26T12:04:53.051Z,35.20
2022-08-26T12:07:29.089Z,35.37
2022-08-26T12:10:05.274Z,35.54
2022-08-26T12:12:40.463Z,35.69
2022-08-26T12:15:18.833Z,35.83
2022-08-26T12:17:54.615Z,35.91
2022-08-26T12:20:48.356Z,36.03
2022-08-26T12:23:44.381Z,35.96
2022-08-26T12:26:23.938Z,35.82
2022-08-26T12:28:59.265Z,35.61
2022-08-26T12:31:37.008Z,35.42
2022-08-26T12:34:17.902Z,35.22
2022-08-26T12:36:53.684Z,34.98
2022-08-26T12:39:31.381Z,34.87
2022-08-26T12:42:08.038Z,34.82
2022-08-26T12:44:54.171Z,34.83
2022-08-26T12:47:42.245Z,34.91
2022-08-26T12:50:24.941Z,34.97
2022-08-26T12:53:02.113Z,34.98
2022-08-26T12:55:43.833Z,34.98
2022-08-26T12:58:26.027Z,34.94
2022-08-26T13:01:19.128Z,34.90
2022-08-26T13:03:52.102Z,34.89
2022-08-26T13:06:32.804Z,34.73
2022-08-26T13:09:26.349Z,34.54
2022-08-26T13:12:02.305Z,34.27
2022-08-26T13:14:33.333Z,34.00
2022-08-26T13:17:05.472Z,33.81
2022-08-26T13:19:37.567Z,33.80
2022-08-26T13:22:12.817Z,33.85
2022-08-26T13:24:45.949Z,33.76
2022-08-26T13:27:20.833Z,33.64
2022-08-26T13:29:53.283Z,33.49
2022-08-26T13:32:27.608Z,33.33
2022-08-26T13:35:00.378Z,33.17
2022-08-26T13:37:38.066Z,33.00
2022-08-26T13:40:13.293Z,32.85
2022-08-26T13:42:49.919Z,32.74
2022-08-26T13:45:22.442Z,32.64
2022-08-26T13:47:54.541Z,32.51
2022-08-26T13:50:26.990Z,32.42
2022-08-26T13:52:59.354Z,32.31
2022-08-26T13:55:31.747Z,32.22
2022-08-26T13:58:03.909Z,32.19
2022-08-26T14:00:38.068Z,32.19
2022-08-26T14:03:13.414Z,32.14
2022-08-26T14:05:45.808Z,32.10
2022-08-26T14:08:18.208Z,32.05
2022-08-26T14:10:50.793Z,31.98
2022-08-26T14:13:23.109Z,31.89
2022-08-26T14:15:56.708Z,31.78
2022-08-26T14:18:36.332Z,31.70
2022-08-26T14:21:15.279Z,31.65
2022-08-26T14:23:47.784Z,31.59
2022-08-26T14:26:28.603Z,31.55
2022-08-26T14:29:04.153Z,31.51
2022-08-26T14:31:38.065Z,31.48
2022-08-26T14:34:10.894Z,31.52
2022-08-26T14:36:43.681Z,31.59
2022-08-26T14:39:16.776Z,31.65
2022-08-26T14:41:54.049Z,31.72
2022-08-26T14:44:29.963Z,31.77
2022-08-26T14:47:06.231Z,31.82
2022-08-26T14:49:39.360Z,31.88
2022-08-26T14:52:11.639Z,31.87
2022-08-26T14:54:43.777Z,31.84
2022-08-26T14:57:17.215Z,31.76
2022-08-26T14:59:50.639Z,31.63
2022-08-26T15:02:32.476Z,31.50
2022-08-26T15:05:08.638Z,31.37
2022-08-26T15:07:41.200Z,31.30
2022-08-26T15:10:15.804Z,31.21
2022-08-26T15:12:48.166Z,31.11
2022-08-26T15:15:21.078Z,31.03
2022-08-26T15:17:53.468Z,30.95
2022-08-26T15:20:25.677Z,30.88
2022-08-26T15:22:59.001Z,30.82
2022-08-26T15:25:38.167Z,30.76
2022-08-26T15:28:10.379Z,30.70
2022-08-26T15:30:43.298Z,30.65
2022-08-26T15:33:16.972Z,30.62
2022-08-26T15:35:49.237Z,30.59
2022-08-26T15:38:21.437Z,30.55
2022-08-26T15:40:53.566Z,30.50
2022-08-26T15:43:29.292Z,30.47
2022-08-26T15:46:01.812Z,30.43
2022-08-26T15:48:34.071Z,30.40
2022-08-26T15:51:07.441Z,30.37
2022-08-26T15:53:39.630Z,30.33
2022-08-26T15:56:11.808Z,30.28
2022-08-26T15:58:44.060Z,30.25
2022-08-26T16:01:18.208Z,30.22
2022-08-26T16:04:00.410Z,30.18
2022-08-26T16:06:34.956Z,30.15
2022-08-26T16:09:37.952Z,30.13
2022-08-26T16:12:11.062Z,30.08
2022-08-26T16:14:46.777Z,30.04
2022-08-26T16:17:19.929Z,30.00
2022-08-26T16:19:52.569Z,29.96
2022-08-26T16:22:25.648Z,29.93
2022-08-26T16:25:01.547Z,29.89
2022-08-26T16:27:33.856Z,29.86
2022-08-26T16:30:07.943Z,29.82
2022-08-26T16:32:40.196Z,29.78
2022-08-26T16:35:12.816Z,29.74
2022-08-26T16:37:46.100Z,29.71
2022-08-26T16:40:19.440Z,29.68
2022-08-26T16:42:51.937Z,29.65
2022-08-26T16:45:25.615Z,29.61
2022-08-26T16:47:59.418Z,29.58
2022-08-26T16:50:32.070Z,29.53
2022-08-26T16:53:04.854Z,29.48
2022-08-26T16:55:38.251Z,29.44
2022-08-26T16:58:10.512Z,29.40
2022-08-26T17:00:43.557Z,29.37
2022-08-26T17:03:16.156Z,29.33
2022-08-26T17:05:48.777Z,29.30
2022-08-26T17:08:27.442Z,29.27
2022-08-26T17:11:03.676Z,29.23
2022-08-26T17:13:36.861Z,29.18
2022-08-26T17:16:11.796Z,29.15
2022-08-26T17:18:44.871Z,29.10
2022-08-26T17:21:17.744Z,29.05
2022-08-26T17:23:50.423Z,29.01
2022-08-26T17:26:23.450Z,28.97
2022-08-26T17:28:57.228Z,28.92
2022-08-26T17:31:29.583Z,28.87
2022-08-26T17:34:04.205Z,28.83
2022-08-26T17:36:36.326Z,28.79
2022-08-26T17:39:08.672Z,28.75
2022-08-26T17:41:41.483Z,28.70
2022-08-26T17:44:13.752Z,28.66
2022-08-26T17:46:45.884Z,28.61
2022-08-26T17:49:18.061Z,28.56
2022-08-26T17:51:50.333Z,28.51
2022-08-26T17:54:22.530Z,28.47
2022-08-26T17:56:55.133Z,28.43
2022-08-26T17:59:30.524Z,28.38
2022-08-26T18:02:03.047Z,28.33
2022-08-26T18:04:35.301Z,28.28
2022-08-26T18:07:10.605Z,28.23
2022-08-26T18:09:46.320Z,28.19
2022-08-26T18:12:18.359Z,28.14
2022-08-26T18:14:50.553Z,28.11
2022-08-26T18:17:22.995Z,28.07
2022-08-26T18:19:55.136Z,28.05
2022-08-26T18:22:27.870Z,28.01
2022-08-26T18:24:59.881Z,27.97
2022-08-26T18:27:31.936Z,27.93
2022-08-26T18:30:04.625Z,27.88
2022-08-26T18:32:36.789Z,27.83
2022-08-26T18:35:21.200Z,27.80
2022-08-26T18:38:01.432Z,27.78
2022-08-26T18:40:51.345Z,27.74
2022-08-26T18:43:26.351Z,27.70
2022-08-26T18:46:06.795Z,27.65
2022-08-26T18:48:40.168Z,27.62
2022-08-26T18:51:19.408Z,27.59
2022-08-26T18:53:54.141Z,27.56
2022-08-26T18:56:26.598Z,27.52
2022-08-26T18:59:03.892Z,27.49
2022-08-26T19:01:37.723Z,27.45
2022-08-26T19:04:15.686Z,27.42
2022-08-26T19:06:50.843Z,27.37
2022-08-26T19:09:27.414Z,27.32
2022-08-26T19:12:07.098Z,27.27
2022-08-26T19:14:41.862Z,27.22
2022-08-26T19:17:14.427Z,27.19
2022-08-26T19:19:55.389Z,27.15
2022-08-26T19:22:40.665Z,27.10
2022-08-26T19:25:13.905Z,27.05
2022-08-26T19:27:46.211Z,27.00
2022-08-26T19:30:20.087Z,26.96
2022-08-26T19:32:52.387Z,26.92
2022-08-26T19:35:24.409Z,26.89
2022-08-26T19:37:59.034Z,26.85
2022-08-26T19:40:32.008Z,26.82
2022-08-26T19:43:04.903Z,26.77
2022-08-26T19:45:38.937Z,26.74
2022-08-26T19:48:15.887Z,26.71
2022-08-26T19:50:48.078Z,26.68
2022-08-26T19:53:20.248Z,26.64
2022-08-26T19:55:52.526Z,26.59
2022-08-26T19:58:24.744Z,26.55
2022-08-26T20:00:57.058Z,26.52
2022-08-26T20:03:29.418Z,26.49
2022-08-26T20:06:01.482Z,26.46
2022-08-26T20:08:34.022Z,26.43
2022-08-26T20:11:11.304Z,26.38
2022-08-26T20:13:44.431Z,26.33
2022-08-26T20:16:17.712Z,26.30
2022-08-26T20:19:07.679Z,26.27
2022-08-26T20:21:46.832Z,26.23
2022-08-26T20:24:21.310Z,26.18
2022-08-26T20:26:53.579Z,26.16
2022-08-26T20:29:26.107Z,26.12
2022-08-26T20:31:58.926Z,26.11
2022-08-26T20:34:35.675Z,26.08
2022-08-26T20:37:09.320Z,26.05
2022-08-26T20:39:42.445Z,26.02
2022-08-26T20:42:20.064Z,25.98
2022-08-26T20:44:56.143Z,25.95
2022-08-26T20:47:31.424Z,25.91
2022-08-26T20:50:03.784Z,25.87
2022-08-26T20:52:36.195Z,25.82
2022-08-26T20:55:10.154Z,25.79
2022-08-26T20:57:46.111Z,25.75
2022-08-26T21:00:26.595Z,25.70
2022-08-26T21:03:07.789Z,25.66
2022-08-26T21:05:40.038Z,25.61
2022-08-26T21:08:13.427Z,25.56
2022-08-26T21:10:46.287Z,25.50
2022-08-26T21:13:21.102Z,25.41
2022-08-26T21:15:56.533Z,25.30
2022-08-26T21:18:29.265Z,25.24
2022-08-26T21:21:04.275Z,25.18
2022-08-26T21:23:37.670Z,25.12
2022-08-26T21:26:13.476Z,25.05
2022-08-26T21:28:46.796Z,24.99
2022-08-26T21:31:23.905Z,24.94
2022-08-26T21:33:56.223Z,24.90
2022-08-26T21:36:28.555Z,24.85
2022-08-26T21:39:01.580Z,24.81
2022-08-26T21:41:33.833Z,24.76
2022-08-26T21:44:06.872Z,24.72
2022-08-26T21:46:39.363Z,24.67
2022-08-26T21:49:13.703Z,24.64
2022-08-26T21:51:47.987Z,24.59
2022-08-26T21:54:20.221Z,24.54
2022-08-26T21:56:52.467Z,24.50
2022-08-26T21:59:24.790Z,24.47
2022-08-26T22:01:57.393Z,24.43
2022-08-26T22:04:30.374Z,24.38
2022-08-26T22:07:03.579Z,24.36
2022-08-26T22:09:35.969Z,24.34
2022-08-26T22:12:13.179Z,24.31
2022-08-26T22:14:45.721Z,24.27
2022-08-26T22:17:18.012Z,24.23
2022-08-26T22:19:51.259Z,24.21
2022-08-26T22:22:24.357Z,24.15
2022-08-26T22:24:56.852Z,24.09
2022-08-26T22:27:29.139Z,24.04
2022-08-26T22:30:01.386Z,23.99
2022-08-26T22:32:34.817Z,23.96
2022-08-26T22:35:11.326Z,23.94
2022-08-26T22:38:00.879Z,23.90
2022-08-26T22:40:34.124Z,23.88
2022-08-26T22:43:06.944Z,23.86
2022-08-26T22:45:44.278Z,23.85
2022-08-26T22:48:19.257Z,23.83
2022-08-26T22:50:58.292Z,23.80
2022-08-26T22:53:35.214Z,23.77
2022-08-26T22:56:08.785Z,23.73
2022-08-26T22:58:41.672Z,23.71
2022-08-26T23:01:14.246Z,23.68
2022-08-26T23:03:46.966Z,23.65
2022-08-26T23:06:19.262Z,23.62
2022-08-26T23:08:52.201Z,23.61
2022-08-26T23:11:24.471Z,23.60
2022-08-26T23:13:56.644Z,23.59
2022-08-26T23:16:29.442Z,23.58
2022-08-26T23:19:09.266Z,23.57
2022-08-26T23:21:42.086Z,23.54
2022-08-26T23:24:14.804Z,23.50
2022-08-26T23:26:47.804Z,23.47
2022-08-26T23:29:20.060Z,23.44
2022-08-26T23:31:52.260Z,23.42
2022-08-26T23:34:41.848Z,23.40
2022-08-26T23:37:14.694Z,23.39
2022-08-26T23:39:47.551Z,23.38
2022-08-26T23:42:19.986Z,23.36
2022-08-26T23:44:52.781Z,23.35
2022-08-26T23:47:25.472Z,23.34
2022-08-26T23:49:57.812Z,23.32
2022-08-26T23:52:47.560Z,23.29
2022-08-26T23:55:20.585Z,23.28
2022-08-26T23:57:52.824Z,23.26
